Buxton, United Kingdom
Current Conditions -  °F | °C
As of 1:20 PM on Thursday 27 Nov 2014 (Local Time) from EGCC Reporting Station
Broken Clouds Broken Clouds  
Wind Chill: 46°   Ceiling: 800
Heat Index: 46°   Visibility: 4mi
Dew Point: 46°   Wind: 3mph
Humidity: 100%   Direction: 190°S
Pressure: 29.56"   Gusts: NA
Location:  53.26°N, 1.91°W
Report Text: EGCC 271320Z 19003KT 6000 FEW004 BKN008 08/08 Q1001 TEMPO SCT008
Loading
Personal Weather Stations






























Interactive Weather Map New forecast layout! Learn more

10-Day Weather Forecast

Advertisements
Track Severe Weather on mobile